sensor_id;sensor_type;location;lat;lon;timestamp;pressure;altitude;pressure_sealevel;temperature;humidity
7058;BME280;3570;43.080;25.628;2023-07-16T00:01:07;-20169.28;;;24.69;100.00
7058;BME280;3570;43.080;25.628;2023-07-16T00:03:51;-20159.91;;;24.36;100.00
7058;BME280;3570;43.080;25.628;2023-07-16T00:06:35;-20168.84;;;24.67;100.00
7058;BME280;3570;43.080;25.628;2023-07-16T00:09:19;-20172.88;;;24.81;100.00
7058;BME280;3570;43.080;25.628;2023-07-16T00:12:03;-20169.56;;;24.70;100.00
7058;BME280;3570;43.080;25.628;2023-07-16T00:14:47;-20170.00;;;24.71;100.00
7058;BME280;3570;43.080;25.628;2023-07-16T00:17:33;-20174.78;;;24.88;100.00
7058;BME280;3570;43.080;25.628;2023-07-16T00:20:17;-20175.78;;;24.91;100.00
7058;BME280;3570;43.080;25.628;2023-07-16T00:23:01;-20176.63;;;24.94;100.00
7058;BME280;3570;43.080;25.628;2023-07-16T00:25:45;-20175.06;;;24.89;100.00
7058;BME280;3570;43.080;25.628;2023-07-16T00:28:29;-20171.00;;;24.75;100.00
7058;BME280;3570;43.080;25.628;2023-07-16T00:31:13;-20170.00;;;24.71;100.00
7058;BME280;3570;43.080;25.628;2023-07-16T00:33:57;-20173.19;;;24.82;100.00
7058;BME280;3570;43.080;25.628;2023-07-16T00:36:41;-20168.69;;;24.67;100.00
7058;BME280;3570;43.080;25.628;2023-07-16T00:39:25;-20161.63;;;24.42;100.00
7058;BME280;3570;43.080;25.628;2023-07-16T00:42:09;-20151.22;;;24.06;100.00
7058;BME280;3570;43.080;25.628;2023-07-16T00:44:53;-20141.13;;;23.71;100.00
7058;BME280;3570;43.080;25.628;2023-07-16T00:47:37;-20146.59;;;23.90;100.00
7058;BME280;3570;43.080;25.628;2023-07-16T00:50:21;-20142.56;;;23.76;100.00
7058;BME280;3570;43.080;25.628;2023-07-16T00:53:06;-20144.28;;;23.82;100.00
7058;BME280;3570;43.080;25.628;2023-07-16T00:55:51;-20139.81;;;23.66;100.00
7058;BME280;3570;43.080;25.628;2023-07-16T00:58:35;-20138.22;;;23.61;100.00
7058;BME280;3570;43.080;25.628;2023-07-16T01:01:19;-20133.31;;;23.44;100.00
7058;BME280;3570;43.080;25.628;2023-07-16T01:04:03;-20130.84;;;23.35;100.00
7058;BME280;3570;43.080;25.628;2023-07-16T01:06:51;-20127.25;;;23.22;100.00
7058;BME280;3570;43.080;25.628;2023-07-16T01:09:41;-20123.78;;;23.10;100.00
7058;BME280;3570;43.080;25.628;2023-07-16T01:12:26;-20127.69;;;23.24;100.00
7058;BME280;3570;43.080;25.628;2023-07-16T01:15:10;-20133.31;;;23.44;100.00
7058;BME280;3570;43.080;25.628;2023-07-16T01:17:54;-20138.53;;;23.62;100.00
7058;BME280;3570;43.080;25.628;2023-07-16T01:20:38;-20133.03;;;23.43;100.00
7058;BME280;3570;43.080;25.628;2023-07-16T01:23:44;-20131.72;;;23.38;100.00
7058;BME280;3570;43.080;25.628;2023-07-16T01:32:31;-20130.56;;;23.34;100.00
7058;BME280;3570;43.080;25.628;2023-07-16T01:35:16;-20127.97;;;23.25;100.00
7058;BME280;3570;43.080;25.628;2023-07-16T01:38:01;-20126.66;;;23.20;100.00
7058;BME280;3570;43.080;25.628;2023-07-16T01:40:45;-20118.56;;;22.92;100.00
7058;BME280;3570;43.080;25.628;2023-07-16T01:43:29;-20123.78;;;23.10;100.00
7058;BME280;3570;43.080;25.628;2023-07-16T01:46:13;-20114.94;;;22.80;100.00
7058;BME280;3570;43.080;25.628;2023-07-16T01:48:57;-20122.03;;;23.04;100.00
7058;BME280;3570;43.080;25.628;2023-07-16T01:51:41;-20121.16;;;23.01;100.00
7058;BME280;3570;43.080;25.628;2023-07-16T01:54:24;-20118.84;;;22.93;100.00
7058;BME280;3570;43.080;25.628;2023-07-16T01:57:08;-20120.31;;;22.98;100.00
7058;BME280;3570;43.080;25.628;2023-07-16T01:59:52;-20118.56;;;22.92;100.00
7058;BME280;3570;43.080;25.628;2023-07-16T02:02:36;-20112.94;;;22.73;100.00
7058;BME280;3570;43.080;25.628;2023-07-16T02:05:20;-20119.72;;;22.96;100.00
7058;BME280;3570;43.080;25.628;2023-07-16T02:08:04;-20113.38;;;22.74;100.00
7058;BME280;3570;43.080;25.628;2023-07-16T02:10:49;-20118.28;;;22.91;100.00
7058;BME280;3570;43.080;25.628;2023-07-16T02:13:33;-20119.44;;;22.95;100.00
7058;BME280;3570;43.080;25.628;2023-07-16T02:16:17;-20128.97;;;23.28;100.00
7058;BME280;3570;43.080;25.628;2023-07-16T02:19:01;-20133.47;;;23.44;100.00
7058;BME280;3570;43.080;25.628;2023-07-16T02:21:45;-20124.50;;;23.13;100.00
7058;BME280;3570;43.080;25.628;2023-07-16T02:24:28;-20131.72;;;23.38;100.00
7058;BME280;3570;43.080;25.628;2023-07-16T02:27:12;-20125.50;;;23.16;100.00
7058;BME280;3570;43.080;25.628;2023-07-16T02:29:56;-20120.00;;;22.97;100.00
7058;BME280;3570;43.080;25.628;2023-07-16T02:32:41;-20130.56;;;23.34;100.00
7058;BME280;3570;43.080;25.628;2023-07-16T02:35:25;-20136.78;;;23.56;100.00
7058;BME280;3570;43.080;25.628;2023-07-16T02:38:08;-20144.00;;;23.81;100.00
7058;BME280;3570;43.080;25.628;2023-07-16T02:40:52;-20149.22;;;23.99;100.00
7058;BME280;3570;43.080;25.628;2023-07-16T02:43:36;-20142.28;;;23.75;100.00
7058;BME280;3570;43.080;25.628;2023-07-16T02:46:20;-20151.81;;;24.08;100.00
7058;BME280;3570;43.080;25.628;2023-07-16T02:49:04;-20148.19;;;23.95;100.00
7058;BME280;3570;43.080;25.628;2023-07-16T02:51:48;-20151.53;;;24.07;100.00
7058;BME280;3570;43.080;25.628;2023-07-16T02:54:33;-20149.94;;;24.01;100.00
7058;BME280;3570;43.080;25.628;2023-07-16T02:57:17;-20150.06;;;24.02;100.00
7058;BME280;3570;43.080;25.628;2023-07-16T03:00:00;-20146.91;;;23.91;100.00
7058;BME280;3570;43.080;25.628;2023-07-16T03:02:44;-20147.47;;;23.93;100.00
7058;BME280;3570;43.080;25.628;2023-07-16T03:05:28;-20142.72;;;23.76;100.00
7058;BME280;3570;43.080;25.628;2023-07-16T03:08:12;-20146.31;;;23.89;100.00
7058;BME280;3570;43.080;25.628;2023-07-16T03:10:57;-20153.41;;;24.13;100.00
7058;BME280;3570;43.080;25.628;2023-07-16T03:13:41;-20153.25;;;24.13;100.00
7058;BME280;3570;43.080;25.628;2023-07-16T03:16:25;-20148.91;;;23.98;100.00
7058;BME280;3570;43.080;25.628;2023-07-16T03:19:09;-20143.44;;;23.79;100.00
7058;BME280;3570;43.080;25.628;2023-07-16T03:21:53;-20145.03;;;23.84;100.00
7058;BME280;3570;43.080;25.628;2023-07-16T03:24:37;-20153.09;;;24.12;100.00
7058;BME280;3570;43.080;25.628;2023-07-16T03:27:21;-20149.78;;;24.01;100.00
7058;BME280;3570;43.080;25.628;2023-07-16T03:30:06;-20157.44;;;24.27;100.00
7058;BME280;3570;43.080;25.628;2023-07-16T03:32:50;-20154.97;;;24.19;100.00
7058;BME280;3570;43.080;25.628;2023-07-16T03:35:34;-20162.34;;;24.45;100.00
7058;BME280;3570;43.080;25.628;2023-07-16T03:38:18;-20156.13;;;24.23;100.00
7058;BME280;3570;43.080;25.628;2023-07-16T03:41:02;-20151.22;;;24.06;100.00
7058;BME280;3570;43.080;25.628;2023-07-16T03:43:46;-20145.16;;;23.85;100.00
7058;BME280;3570;43.080;25.628;2023-07-16T03:46:30;-20156.44;;;24.24;100.00
7058;BME280;3570;43.080;25.628;2023-07-16T03:49:14;-20157.72;;;24.28;100.00
7058;BME280;3570;43.080;25.628;2023-07-16T03:51:58;-20167.69;;;24.63;100.00
7058;BME280;3570;43.080;25.628;2023-07-16T03:54:42;-20172.59;;;24.80;100.00
7058;BME280;3570;43.080;25.628;2023-07-16T03:57:28;-20176.22;;;24.93;100.00
7058;BME280;3570;43.080;25.628;2023-07-16T04:00:12;-20173.75;;;24.84;100.00
7058;BME280;3570;43.080;25.628;2023-07-16T04:02:56;-20177.38;;;24.97;100.00
7058;BME280;3570;43.080;25.628;2023-07-16T04:05:40;-20182.41;;;25.14;100.00
7058;BME280;3570;43.080;25.628;2023-07-16T04:08:24;-20187.59;;;25.33;100.00
7058;BME280;3570;43.080;25.628;2023-07-16T04:11:08;-20189.91;;;25.41;100.00
7058;BME280;3570;43.080;25.628;2023-07-16T04:13:52;-20177.38;;;24.97;100.00
7058;BME280;3570;43.080;25.628;2023-07-16T04:16:36;-20167.13;;;24.61;100.00
7058;BME280;3570;43.080;25.628;2023-07-16T04:19:20;-20165.81;;;24.57;100.00
7058;BME280;3570;43.080;25.628;2023-07-16T04:22:04;-20168.28;;;24.65;100.00
7058;BME280;3570;43.080;25.628;2023-07-16T04:24:48;-20171.00;;;24.75;100.00
7058;BME280;3570;43.080;25.628;2023-07-16T04:27:32;-20177.50;;;24.97;100.00
7058;BME280;3570;43.080;25.628;2023-07-16T04:30:16;-20169.28;;;24.69;100.00
7058;BME280;3570;43.080;25.628;2023-07-16T04:33:00;-20175.78;;;24.91;100.00
7058;BME280;3570;43.080;25.628;2023-07-16T04:35:44;-20178.94;;;25.02;100.00
7058;BME280;3570;43.080;25.628;2023-07-16T04:38:28;-20178.53;;;25.01;100.00
7058;BME280;3570;43.080;25.628;2023-07-16T04:41:12;-20170.88;;;24.74;100.00
7058;BME280;3570;43.080;25.628;2023-07-16T04:43:56;-20179.53;;;25.04;100.00
7058;BME280;3570;43.080;25.628;2023-07-16T04:46:40;-20178.81;;;25.02;100.00
7058;BME280;3570;43.080;25.628;2023-07-16T04:49:24;-20185.16;;;25.24;100.00
7058;BME280;3570;43.080;25.628;2023-07-16T04:52:08;-20193.81;;;25.54;100.00
7058;BME280;3570;43.080;25.628;2023-07-16T04:54:52;-20186.44;;;25.29;100.00
7058;BME280;3570;43.080;25.628;2023-07-16T04:57:36;-20200.31;;;25.77;100.00
7058;BME280;3570;43.080;25.628;2023-07-16T05:00:20;-20202.03;;;25.83;100.00
7058;BME280;3570;43.080;25.628;2023-07-16T05:03:04;-20212.84;;;26.21;100.00
7058;BME280;3570;43.080;25.628;2023-07-16T05:05:48;-20215.28;;;26.29;100.00
7058;BME280;3570;43.080;25.628;2023-07-16T05:08:32;-20221.34;;;26.50;100.00
7058;BME280;3570;43.080;25.628;2023-07-16T05:11:16;-20223.81;;;26.59;100.00
7058;BME280;3570;43.080;25.628;2023-07-16T05:13:59;-20236.63;;;27.04;100.00
7058;BME280;3570;43.080;25.628;2023-07-16T05:16:43;-20233.47;;;26.92;100.00
7058;BME280;3570;43.080;25.628;2023-07-16T05:19:27;-20232.72;;;26.90;100.00
7058;BME280;3570;43.080;25.628;2023-07-16T05:22:11;-20234.59;;;26.96;100.00
7058;BME280;3570;43.080;25.628;2023-07-16T05:24:55;-20233.47;;;26.92;100.00
7058;BME280;3570;43.080;25.628;2023-07-16T05:27:39;-20236.47;;;27.03;100.00
7058;BME280;3570;43.080;25.628;2023-07-16T05:30:23;-20241.09;;;27.19;100.00
7058;BME280;3570;43.080;25.628;2023-07-16T05:33:07;-20242.09;;;27.23;100.00
7058;BME280;3570;43.080;25.628;2023-07-16T05:35:51;-20237.34;;;27.06;100.00
7058;BME280;3570;43.080;25.628;2023-07-16T05:38:35;-20241.94;;;27.22;100.00
7058;BME280;3570;43.080;25.628;2023-07-16T05:41:19;-20244.41;;;27.31;100.00
7058;BME280;3570;43.080;25.628;2023-07-16T05:44:03;-20245.25;;;27.34;100.00
7058;BME280;3570;43.080;25.628;2023-07-16T05:46:47;-20250.44;;;27.52;100.00
7058;BME280;3570;43.080;25.628;2023-07-16T05:49:30;-20244.69;;;27.32;100.00
7058;BME280;3570;43.080;25.628;2023-07-16T05:52:15;-20235.19;;;26.98;100.00
7058;BME280;3570;43.080;25.628;2023-07-16T05:54:59;-20243.53;;;27.28;100.00
7058;BME280;3570;43.080;25.628;2023-07-16T05:57:43;-20244.41;;;27.31;100.00
7058;BME280;3570;43.080;25.628;2023-07-16T06:00:27;-20251.59;;;27.56;100.00
7058;BME280;3570;43.080;25.628;2023-07-16T06:03:12;-20254.47;;;27.66;100.00
7058;BME280;3570;43.080;25.628;2023-07-16T06:05:56;-20260.53;;;27.87;100.00
7058;BME280;3570;43.080;25.628;2023-07-16T06:08:40;-20257.94;;;27.78;100.00
7058;BME280;3570;43.080;25.628;2023-07-16T06:11:24;-20263.13;;;27.96;98.53
7058;BME280;3570;43.080;25.628;2023-07-16T06:14:08;-20258.78;;;27.81;96.97
7058;BME280;3570;43.080;25.628;2023-07-16T06:16:51;-20262.97;;;27.96;97.11
7058;BME280;3570;43.080;25.628;2023-07-16T06:19:36;-20268.28;;;28.14;96.96
7058;BME280;3570;43.080;25.628;2023-07-16T06:22:20;-20274.91;;;28.37;94.57
7058;BME280;3570;43.080;25.628;2023-07-16T06:25:04;-20283.81;;;28.68;92.66
7058;BME280;3570;43.080;25.628;2023-07-16T06:27:49;-20286.56;;;28.78;90.69
7058;BME280;3570;43.080;25.628;2023-07-16T06:30:33;-20287.72;;;28.82;90.31
7058;BME280;3570;43.080;25.628;2023-07-16T06:33:18;-20286.84;;;28.79;90.94
7058;BME280;3570;43.080;25.628;2023-07-16T06:36:02;-20289.56;;;28.89;90.32
7058;BME280;3570;43.080;25.628;2023-07-16T06:38:47;-20301.94;;;29.32;89.04
7058;BME280;3570;43.080;25.628;2023-07-16T06:41:31;-20302.66;;;29.34;86.29
7058;BME280;3570;43.080;25.628;2023-07-16T06:44:15;-20303.66;;;29.38;86.42
7058;BME280;3570;43.080;25.628;2023-07-16T06:46:59;-20306.53;;;29.48;85.38
7058;BME280;3570;43.080;25.628;2023-07-16T06:49:43;-20303.66;;;29.38;83.96
7058;BME280;3570;43.080;25.628;2023-07-16T06:52:27;-20314.31;;;29.75;83.78
7058;BME280;3570;43.080;25.628;2023-07-16T06:55:11;-20315.44;;;29.79;81.52
7058;BME280;3570;43.080;25.628;2023-07-16T06:57:55;-20318.59;;;29.90;83.65
7058;BME280;3570;43.080;25.628;2023-07-16T07:00:39;-20317.88;;;29.88;81.58
7058;BME280;3570;43.080;25.628;2023-07-16T07:03:23;-20314.88;;;29.77;84.67
7058;BME280;3570;43.080;25.628;2023-07-16T07:06:07;-20313.88;;;29.74;83.35
7058;BME280;3570;43.080;25.628;2023-07-16T07:08:54;-20322.34;;;30.03;82.63
7058;BME280;3570;43.080;25.628;2023-07-16T07:11:38;-20320.03;;;29.95;81.68
7058;BME280;3570;43.080;25.628;2023-07-16T07:14:22;-20315.44;;;29.79;80.24
7058;BME280;3570;43.080;25.628;2023-07-16T07:17:06;-20324.91;;;30.12;79.79
7058;BME280;3570;43.080;25.628;2023-07-16T07:19:50;-20325.50;;;30.14;79.63
7058;BME280;3570;43.080;25.628;2023-07-16T07:22:34;-20335.41;;;30.49;80.52
7058;BME280;3570;43.080;25.628;2023-07-16T07:25:18;-20337.56;;;30.56;74.37
7058;BME280;3570;43.080;25.628;2023-07-16T07:28:03;-20325.63;;;30.15;75.43
7058;BME280;3570;43.080;25.628;2023-07-16T07:30:47;-20328.50;;;30.25;77.27
7058;BME280;3570;43.080;25.628;2023-07-16T07:33:31;-20325.19;;;30.13;77.76
7058;BME280;3570;43.080;25.628;2023-07-16T07:36:16;-20331.81;;;30.36;78.61
7058;BME280;3570;43.080;25.628;2023-07-16T07:39:00;-20329.09;;;30.27;76.22
7058;BME280;3570;43.080;25.628;2023-07-16T07:41:44;-20329.38;;;30.28;75.53
7058;BME280;3570;43.080;25.628;2023-07-16T07:44:28;-20335.84;;;30.50;76.89
7058;BME280;3570;43.080;25.628;2023-07-16T07:47:12;-20336.41;;;30.52;76.24
7058;BME280;3570;43.080;25.628;2023-07-16T07:49:56;-20326.34;;;30.17;74.42
7058;BME280;3570;43.080;25.628;2023-07-16T07:52:40;-20346.16;;;30.87;74.46
7058;BME280;3570;43.080;25.628;2023-07-16T07:55:24;-20352.47;;;31.09;71.79
7058;BME280;3570;43.080;25.628;2023-07-16T07:58:08;-20350.31;;;31.01;72.54
7058;BME280;3570;43.080;25.628;2023-07-16T08:00:52;-20356.19;;;31.22;71.03
7058;BME280;3570;43.080;25.628;2023-07-16T08:03:36;-20366.09;;;31.57;70.42
7058;BME280;3570;43.080;25.628;2023-07-16T08:06:20;-20366.38;;;31.58;71.14
7058;BME280;3570;43.080;25.628;2023-07-16T08:09:04;-20360.50;;;31.37;69.86
7058;BME280;3570;43.080;25.628;2023-07-16T08:11:49;-20359.66;;;31.34;70.21
7058;BME280;3570;43.080;25.628;2023-07-16T08:14:33;-20344.72;;;30.82;70.80
7058;BME280;3570;43.080;25.628;2023-07-16T08:17:17;-20369.41;;;31.68;71.34
7058;BME280;3570;43.080;25.628;2023-07-16T08:20:00;-20384.28;;;32.20;69.04
7058;BME280;3570;43.080;25.628;2023-07-16T08:22:44;-20399.63;;;32.74;62.58
7058;BME280;3570;43.080;25.628;2023-07-16T08:25:28;-20409.22;;;33.08;61.44
7058;BME280;3570;43.080;25.628;2023-07-16T08:28:13;-20413.78;;;33.24;59.83
7058;BME280;3570;43.080;25.628;2023-07-16T08:30:58;-20409.22;;;33.08;61.32
7058;BME280;3570;43.080;25.628;2023-07-16T08:33:42;-20391.31;;;32.45;61.54
7058;BME280;3570;43.080;25.628;2023-07-16T08:36:26;-20396.31;;;32.63;63.57
7058;BME280;3570;43.080;25.628;2023-07-16T08:39:10;-20387.44;;;32.31;60.91
7058;BME280;3570;43.080;25.628;2023-07-16T08:41:54;-20389.75;;;32.39;61.12
7058;BME280;3570;43.080;25.628;2023-07-16T08:44:39;-20383.44;;;32.17;60.51
7058;BME280;3570;43.080;25.628;2023-07-16T08:47:23;-20394.19;;;32.55;61.41
7058;BME280;3570;43.080;25.628;2023-07-16T08:50:07;-20394.03;;;32.55;63.17
7058;BME280;3570;43.080;25.628;2023-07-16T08:52:53;-20388.59;;;32.35;61.25
7058;BME280;3570;43.080;25.628;2023-07-16T08:55:38;-20385.28;;;32.24;60.63
7058;BME280;3570;43.080;25.628;2023-07-16T08:58:23;-20401.06;;;32.79;59.00
7058;BME280;3570;43.080;25.628;2023-07-16T09:01:08;-20410.63;;;33.13;57.46
7058;BME280;3570;43.080;25.628;2023-07-16T09:03:53;-20403.47;;;32.88;56.39
7058;BME280;3570;43.080;25.628;2023-07-16T09:06:38;-20414.34;;;33.26;56.54
7058;BME280;3570;43.080;25.628;2023-07-16T09:09:22;-20419.50;;;33.44;55.14
7058;BME280;3570;43.080;25.628;2023-07-16T09:12:13;-20436.38;;;34.03;54.41
7058;BME280;3570;43.080;25.628;2023-07-16T09:14:58;-20445.25;;;34.35;54.10
7058;BME280;3570;43.080;25.628;2023-07-16T09:17:41;-20438.81;;;34.12;54.52
7058;BME280;3570;43.080;25.628;2023-07-16T09:20:26;-20436.09;;;34.02;53.54
7058;BME280;3570;43.080;25.628;2023-07-16T09:23:11;-20421.66;;;33.52;53.07
7058;BME280;3570;43.080;25.628;2023-07-16T09:25:55;-20438.81;;;34.12;54.11
7058;BME280;3570;43.080;25.628;2023-07-16T09:28:40;-20445.81;;;34.37;53.78
7058;BME280;3570;43.080;25.628;2023-07-16T09:31:24;-20459.81;;;34.86;50.92
7058;BME280;3570;43.080;25.628;2023-07-16T09:34:09;-20448.97;;;34.48;52.28
7058;BME280;3570;43.080;25.628;2023-07-16T09:36:53;-20454.09;;;34.66;52.33
7058;BME280;3570;43.080;25.628;2023-07-16T09:39:37;-20467.97;;;35.15;51.29
7058;BME280;3570;43.080;25.628;2023-07-16T09:42:22;-20493.06;;;36.03;48.54
7058;BME280;3570;43.080;25.628;2023-07-16T09:45:18;-20474.53;;;35.38;50.21
7058;BME280;3570;43.080;25.628;2023-07-16T09:48:03;-20482.09;;;35.64;48.50
7058;BME280;3570;43.080;25.628;2023-07-16T09:50:53;-20515.16;;;36.81;46.67
7058;BME280;3570;43.080;25.628;2023-07-16T09:53:40;-20558.03;;;38.32;43.50
7058;BME280;3570;43.080;25.628;2023-07-16T09:56:29;-20585.75;;;39.30;41.18
7058;BME280;3570;43.080;25.628;2023-07-16T09:59:17;-20566.41;;;38.62;40.54
7058;BME280;3570;43.080;25.628;2023-07-16T10:02:01;-20571.53;;;38.80;38.99
7058;BME280;3570;43.080;25.628;2023-07-16T10:04:46;-20546.50;;;37.92;40.61
7058;BME280;3570;43.080;25.628;2023-07-16T10:07:32;-20546.22;;;37.91;39.80
7058;BME280;3570;43.080;25.628;2023-07-16T10:10:15;-20567.97;;;38.68;40.33
7058;BME280;3570;43.080;25.628;2023-07-16T10:13:02;-20585.47;;;39.29;38.49
7058;BME280;3570;43.080;25.628;2023-07-16T10:15:53;-20588.44;;;39.40;37.22
7058;BME280;3570;43.080;25.628;2023-07-16T10:18:37;-20551.34;;;38.09;40.55
7058;BME280;3570;43.080;25.628;2023-07-16T10:21:24;-20561.59;;;38.45;39.54
7058;BME280;3570;43.080;25.628;2023-07-16T10:24:16;-20575.09;;;38.93;37.86
7058;BME280;3570;43.080;25.628;2023-07-16T10:27:02;-20589.16;;;39.42;38.04
7058;BME280;3570;43.080;25.628;2023-07-16T10:29:46;-20583.75;;;39.23;38.05
7058;BME280;3570;43.080;25.628;2023-07-16T10:32:32;-20563.72;;;38.52;38.16
7058;BME280;3570;43.080;25.628;2023-07-16T10:35:16;-20561.31;;;38.44;38.24
7058;BME280;3570;43.080;25.628;2023-07-16T10:38:00;-20567.97;;;38.68;38.87
7058;BME280;3570;43.080;25.628;2023-07-16T10:40:45;-20585.47;;;39.29;37.05
7058;BME280;3570;43.080;25.628;2023-07-16T10:43:29;-20595.41;;;39.65;36.80
7058;BME280;3570;43.080;25.628;2023-07-16T10:46:14;-20631.31;;;40.92;35.18
7058;BME280;3570;43.080;25.628;2023-07-16T10:48:58;-20612.84;;;40.26;34.76
7058;BME280;3570;43.080;25.628;2023-07-16T10:51:42;-20564.56;;;38.55;37.39
7058;BME280;3570;43.080;25.628;2023-07-16T10:54:26;-20526.44;;;37.21;40.38
7058;BME280;3570;43.080;25.628;2023-07-16T10:57:11;-20518.16;;;36.92;41.27
7058;BME280;3570;43.080;25.628;2023-07-16T10:59:59;-20533.69;;;37.46;39.34
7058;BME280;3570;43.080;25.628;2023-07-16T11:02:44;-20530.56;;;37.35;39.21
7058;BME280;3570;43.080;25.628;2023-07-16T11:05:28;-20507.06;;;36.52;40.61
7058;BME280;3570;43.080;25.628;2023-07-16T11:08:22;-20558.16;;;38.33;37.04
7058;BME280;3570;43.080;25.628;2023-07-16T11:11:06;-20588.16;;;39.39;35.76
7058;BME280;3570;43.080;25.628;2023-07-16T11:13:51;-20643.91;;;41.37;33.90
7058;BME280;3570;43.080;25.628;2023-07-16T11:16:36;-20694.16;;;43.15;31.57
7058;BME280;3570;43.080;25.628;2023-07-16T11:19:20;-20669.81;;;42.29;30.92
7058;BME280;3570;43.080;25.628;2023-07-16T11:22:06;-20609.88;;;40.16;33.41
7058;BME280;3570;43.080;25.628;2023-07-16T11:24:51;-20585.75;;;39.30;34.11
7058;BME280;3570;43.080;25.628;2023-07-16T11:27:35;-20615.84;;;40.37;33.78
7058;BME280;3570;43.080;25.628;2023-07-16T11:30:22;-20638.66;;;41.18;32.93
7058;BME280;3570;43.080;25.628;2023-07-16T11:33:11;-20636.13;;;41.09;33.21
7058;BME280;3570;43.080;25.628;2023-07-16T11:35:55;-20627.34;;;40.78;34.58
7058;BME280;3570;43.080;25.628;2023-07-16T11:38:40;-20626.47;;;40.75;34.41
7058;BME280;3570;43.080;25.628;2023-07-16T11:41:24;-20653.56;;;41.71;33.76
7058;BME280;3570;43.080;25.628;2023-07-16T11:44:08;-20718.75;;;44.03;30.76
7058;BME280;3570;43.080;25.628;2023-07-16T11:46:53;-20740.06;;;44.79;28.56
7058;BME280;3570;43.080;25.628;2023-07-16T11:49:37;-20733.00;;;44.53;29.09
7058;BME280;3570;43.080;25.628;2023-07-16T11:52:30;-20746.53;;;45.02;28.55
7058;BME280;3570;43.080;25.628;2023-07-16T11:55:14;-20782.03;;;46.28;27.29
7058;BME280;3570;43.080;25.628;2023-07-16T11:57:58;-20769.66;;;45.84;27.50
7058;BME280;3570;43.080;25.628;2023-07-16T12:00:43;-20775.28;;;46.04;26.94
7058;BME280;3570;43.080;25.628;2023-07-16T12:03:27;-20733.97;;;44.57;27.97
7058;BME280;3570;43.080;25.628;2023-07-16T12:06:11;-20672.50;;;42.38;31.06
7058;BME280;3570;43.080;25.628;2023-07-16T12:08:55;-20659.34;;;41.91;31.35
7058;BME280;3570;43.080;25.628;2023-07-16T12:11:39;-20634.56;;;41.03;31.96
7058;BME280;3570;43.080;25.628;2023-07-16T12:14:23;-20683.84;;;42.78;29.92
7058;BME280;3570;43.080;25.628;2023-07-16T12:17:07;-20688.06;;;42.93;29.27
7058;BME280;3570;43.080;25.628;2023-07-16T12:19:51;-20662.31;;;42.02;30.84
7058;BME280;3570;43.080;25.628;2023-07-16T12:22:35;-20660.91;;;41.97;31.77
7058;BME280;3570;43.080;25.628;2023-07-16T12:25:20;-20663.75;;;42.07;31.05
7058;BME280;3570;43.080;25.628;2023-07-16T12:28:04;-20675.06;;;42.47;30.09
7058;BME280;3570;43.080;25.628;2023-07-16T12:30:48;-20712.38;;;43.80;28.63
7058;BME280;3570;43.080;25.628;2023-07-16T12:33:32;-20738.78;;;44.74;27.34
7058;BME280;3570;43.080;25.628;2023-07-16T12:36:16;-20762.75;;;45.59;26.10
7058;BME280;3570;43.080;25.628;2023-07-16T12:38:59;-20730.31;;;44.44;27.18
7058;BME280;3570;43.080;25.628;2023-07-16T12:41:44;-20716.34;;;43.94;28.08
7058;BME280;3570;43.080;25.628;2023-07-16T12:44:29;-20696.00;;;43.22;28.41
7058;BME280;3570;43.080;25.628;2023-07-16T12:47:13;-20692.03;;;43.08;28.62
7058;BME280;3570;43.080;25.628;2023-07-16T12:49:57;-20682.56;;;42.74;29.29
7058;BME280;3570;43.080;25.628;2023-07-16T12:52:41;-20728.06;;;44.36;27.99
7058;BME280;3570;43.080;25.628;2023-07-16T12:55:25;-20744.84;;;44.96;27.21
7058;BME280;3570;43.080;25.628;2023-07-16T12:58:09;-20749.63;;;45.13;26.80
7058;BME280;3570;43.080;25.628;2023-07-16T13:00:53;-20773.72;;;45.99;25.04
7058;BME280;3570;43.080;25.628;2023-07-16T13:03:37;-20756.81;;;45.38;25.82
7058;BME280;3570;43.080;25.628;2023-07-16T13:06:21;-20755.41;;;45.33;26.08
7058;BME280;3570;43.080;25.628;2023-07-16T13:09:05;-20710.41;;;43.73;27.36
7058;BME280;3570;43.080;25.628;2023-07-16T13:11:49;-20698.53;;;43.31;27.86
7058;BME280;3570;43.080;25.628;2023-07-16T13:14:34;-20709.00;;;43.68;28.10
7058;BME280;3570;43.080;25.628;2023-07-16T13:17:18;-20713.66;;;43.84;28.27
7058;BME280;3570;43.080;25.628;2023-07-16T13:20:04;-20761.19;;;45.54;26.34
7058;BME280;3570;43.080;25.628;2023-07-16T13:22:49;-20767.66;;;45.77;25.63
7058;BME280;3570;43.080;25.628;2023-07-16T13:25:35;-20769.66;;;45.84;25.42
7058;BME280;3570;43.080;25.628;2023-07-16T13:28:19;-20810.59;;;47.30;24.39
7058;BME280;3570;43.080;25.628;2023-07-16T13:31:03;-20820.16;;;47.65;24.06
7058;BME280;3570;43.080;25.628;2023-07-16T13:33:47;-20777.09;;;46.11;24.80
7058;BME280;3570;43.080;25.628;2023-07-16T13:36:31;-20773.88;;;45.99;25.08
7058;BME280;3570;43.080;25.628;2023-07-16T13:39:15;-20796.69;;;46.81;24.56
7058;BME280;3570;43.080;25.628;2023-07-16T13:42:00;-20812.84;;;47.39;23.39
7058;BME280;3570;43.080;25.628;2023-07-16T13:44:44;-20803.28;;;47.04;23.49
7058;BME280;3570;43.080;25.628;2023-07-16T13:47:28;-20798.63;;;46.88;24.25
7058;BME280;3570;43.080;25.628;2023-07-16T13:50:12;-20797.78;;;46.85;24.02
7058;BME280;3570;43.080;25.628;2023-07-16T13:52:56;-20810.59;;;47.30;23.35
7058;BME280;3570;43.080;25.628;2023-07-16T13:55:40;-20802.16;;;47.00;23.56
7058;BME280;3570;43.080;25.628;2023-07-16T13:58:24;-20781.19;;;46.25;24.18
7058;BME280;3570;43.080;25.628;2023-07-16T14:01:08;-20754.56;;;45.30;25.57
7058;BME280;3570;43.080;25.628;2023-07-16T14:03:52;-20736.25;;;44.65;26.10
7058;BME280;3570;43.080;25.628;2023-07-16T14:06:37;-20746.97;;;45.03;25.43
7058;BME280;3570;43.080;25.628;2023-07-16T14:09:21;-20739.91;;;44.78;25.67
7058;BME280;3570;43.080;25.628;2023-07-16T14:12:06;-20718.19;;;44.01;26.34
7058;BME280;3570;43.080;25.628;2023-07-16T14:14:50;-20743.56;;;44.91;26.32
7058;BME280;3570;43.080;25.628;2023-07-16T14:17:34;-20750.34;;;45.15;25.91
7058;BME280;3570;43.080;25.628;2023-07-16T14:20:18;-20741.19;;;44.83;26.22
7058;BME280;3570;43.080;25.628;2023-07-16T14:23:02;-20745.41;;;44.98;26.63
7058;BME280;3570;43.080;25.628;2023-07-16T14:25:47;-20754.28;;;45.29;25.88
7058;BME280;3570;43.080;25.628;2023-07-16T14:28:31;-20798.34;;;46.87;24.41
7058;BME280;3570;43.080;25.628;2023-07-16T14:31:15;-20765.56;;;45.70;24.76